Time;durP1;ratioP1;P1;durP2;ratioP2;P2;SDS_P1;SDS_P2;PMS_P1;PMS_P2;Temp;Humidity;BMP_temperature;BMP_pressure;BME280_temperature;BME280_humidity;BME280_pressure;Samples;Min_cycle;Max_cycle;Signal;HPM_P1;HPM_P2
2023/04/11 00:01:10;;;;;;;1.90;1.60;;;;;;;10.64;100.00;99930.44;4992759;28;20045;-85
2023/04/11 00:03:37;;;;;;;1.75;1.50;;;;;;;10.65;100.00;99933.94;4974358;28;20053;-90
2023/04/11 00:06:08;;;;;;;3.05;1.40;;;;;;;10.40;100.00;99903.50;4988213;28;20106;-87
2023/04/11 00:08:35;;;;;;;1.58;1.40;;;;;;;10.40;100.00;99894.69;4980563;28;20041;-86
2023/04/11 00:11:02;;;;;;;2.05;1.52;;;;;;;10.46;100.00;99918.19;5011267;28;20048;-89
2023/04/11 00:13:29;;;;;;;1.50;1.20;;;;;;;10.37;100.00;99908.13;4983560;28;20043;-88
2023/04/11 00:15:57;;;;;;;1.35;1.20;;;;;;;10.34;100.00;99924.16;5001951;28;20043;-86
2023/04/11 00:18:25;;;;;;;2.85;1.10;;;;;;;10.29;100.00;99931.47;5007394;28;20035;-86
2023/04/11 00:20:52;;;;;;;1.10;1.00;;;;;;;10.27;100.00;99909.53;4981611;28;20079;-85
2023/04/11 00:23:19;;;;;;;1.77;1.20;;;;;;;10.17;100.00;99903.84;5008458;28;20061;-87
2023/04/11 00:25:46;;;;;;;2.33;1.10;;;;;;;10.16;100.00;99900.34;4994671;28;20041;-87
2023/04/11 00:28:18;;;;;;;3.00;1.10;;;;;;;10.07;100.00;99895.53;4984708;28;20051;-87
2023/04/11 00:30:45;;;;;;;2.08;1.08;;;;;;;10.11;100.00;99898.88;5008506;23;20034;-89
2023/04/11 00:33:13;;;;;;;1.10;1.00;;;;;;;10.06;100.00;99908.88;4986852;28;20049;-89
2023/04/11 00:35:41;;;;;;;1.80;1.17;;;;;;;10.07;100.00;99894.69;5003563;28;20034;-86
2023/04/11 00:38:16;;;;;;;1.30;1.20;;;;;;;10.10;100.00;99902.44;5002851;28;20073;-87
2023/04/11 00:40:45;;;;;;;2.40;1.30;;;;;;;10.10;100.00;99908.59;5021682;28;20042;-86
2023/04/11 00:43:15;;;;;;;1.33;1.10;;;;;;;10.15;100.00;99895.13;4991650;28;20030;-85
2023/04/11 00:45:47;;;;;;;1.10;1.00;;;;;;;10.07;100.00;99869.06;5000574;28;20030;-86
2023/04/11 00:48:16;;;;;;;3.55;1.38;;;;;;;9.73;100.00;99816.28;5014917;28;20070;-87
2023/04/11 00:50:44;;;;;;;1.92;1.10;;;;;;;9.63;100.00;99812.38;4999451;28;20056;-84
2023/04/11 00:53:12;;;;;;;1.27;1.13;;;;;;;9.90;100.00;99868.28;5008989;28;20094;-86
2023/04/11 00:55:39;;;;;;;1.35;1.20;;;;;;;9.55;100.00;99822.53;5026649;28;20037;-87
2023/04/11 00:58:08;;;;;;;2.17;1.13;;;;;;;9.74;100.00;99860.28;5021524;28;20048;-88
2023/04/11 01:00:37;;;;;;;2.28;0.82;;;;;;;9.72;100.00;99888.59;5002936;28;20042;-85
2023/04/11 01:03:04;;;;;;;0.82;0.82;;;;;;;9.76;100.00;99898.06;4998735;28;20042;-85
2023/04/11 01:05:32;;;;;;;2.88;0.95;;;;;;;9.84;100.00;99925.84;5029001;28;20050;-86
2023/04/11 01:08:00;;;;;;;1.35;0.80;;;;;;;9.79;100.00;99917.28;5003242;28;20030;-87
2023/04/11 01:10:29;;;;;;;0.80;0.80;;;;;;;9.55;100.00;99883.31;5007273;28;20049;-85
2023/04/11 01:12:59;;;;;;;1.23;0.63;;;;;;;9.44;100.00;99878.59;5012343;28;20102;-88
2023/04/11 01:15:26;;;;;;;0.90;0.57;;;;;;;9.72;100.00;99937.03;5024800;28;20038;-86
2023/04/11 01:17:54;;;;;;;2.80;0.70;;;;;;;9.38;100.00;99882.38;4982935;28;20057;-86
2023/04/11 01:20:25;;;;;;;1.70;0.57;;;;;;;9.54;100.00;99926.53;5015058;28;20062;-89
2023/04/11 01:22:53;;;;;;;1.27;0.63;;;;;;;9.59;100.00;99950.97;4987501;28;20039;-86
2023/04/11 01:25:21;;;;;;;1.08;0.68;;;;;;;9.64;100.00;99975.38;4999966;28;20031;-89
2023/04/11 01:27:47;;;;;;;1.20;0.50;;;;;;;9.66;100.00;99981.44;5015638;28;20041;-85
2023/04/11 01:30:15;;;;;;;1.05;0.63;;;;;;;9.66;100.00;99978.78;5015090;28;20122;-85
2023/04/11 01:32:49;;;;;;;0.70;0.40;;;;;;;9.47;100.00;99950.63;4987328;28;20064;-82
2023/04/11 01:35:17;;;;;;;1.38;0.43;;;;;;;9.56;100.00;99948.47;4988610;28;20035;-85
2023/04/11 01:37:45;;;;;;;1.13;0.50;;;;;;;9.42;100.00;99931.50;4993275;28;20039;-86
2023/04/11 01:40:18;;;;;;;1.20;0.52;;;;;;;9.41;100.00;99927.16;4973465;28;20078;-85
2023/04/11 01:42:46;;;;;;;1.88;0.70;;;;;;;9.44;100.00;99926.16;4986898;28;20076;-85
2023/04/11 01:45:13;;;;;;;0.82;0.50;;;;;;;9.45;100.00;99943.69;4985572;28;20031;-84
2023/04/11 01:47:40;;;;;;;1.42;0.50;;;;;;;9.39;100.00;99946.66;4974258;28;20027;-85
2023/04/11 01:50:11;;;;;;;0.60;0.40;;;;;;;9.34;100.00;99931.03;4980339;28;20047;-84
2023/04/11 01:52:40;;;;;;;2.05;0.63;;;;;;;9.50;100.00;99937.25;4979685;28;20078;-85
2023/04/11 01:55:07;;;;;;;2.65;0.70;;;;;;;9.43;100.00;99919.16;4981472;28;20058;-85
2023/04/11 01:57:34;;;;;;;1.17;0.70;;;;;;;9.54;100.00;99939.75;4983851;28;20042;-83
2023/04/11 02:00:00;;;;;;;1.73;0.65;;;;;;;9.56;100.00;99946.69;4987809;28;20035;-84
2023/04/11 02:02:27;;;;;;;1.63;0.50;;;;;;;9.60;100.00;99937.63;4981144;28;20045;-84
2023/04/11 02:04:55;;;;;;;1.27;0.60;;;;;;;9.47;100.00;99916.25;5007903;28;20061;-87
2023/04/11 02:07:23;;;;;;;2.30;0.60;;;;;;;9.35;100.00;99906.31;4992188;28;20050;-83
2023/04/11 02:09:49;;;;;;;0.60;0.60;;;;;;;9.63;100.00;99948.06;5007795;28;20206;-85
2023/04/11 02:12:16;;;;;;;1.02;0.70;;;;;;;9.71;100.00;99940.63;4990870;28;20053;-82
2023/04/11 02:14:45;;;;;;;1.92;0.80;;;;;;;9.65;100.00;99942.72;4981879;28;20050;-87
2023/04/11 02:17:12;;;;;;;3.30;0.75;;;;;;;9.59;100.00;99941.25;4994109;28;20042;-85
2023/04/11 02:19:44;;;;;;;0.85;0.65;;;;;;;9.46;100.00;99919.84;4991465;28;20045;-84
2023/04/11 02:22:11;;;;;;;1.88;0.70;;;;;;;9.57;100.00;99927.25;5007045;28;20052;-84
2023/04/11 02:24:42;;;;;;;2.60;0.90;;;;;;;9.61;100.00;99938.50;4997497;28;20042;-86
2023/04/11 02:27:10;;;;;;;1.58;0.50;;;;;;;9.60;100.00;99934.16;4975767;28;20062;-85
2023/04/11 02:29:36;;;;;;;1.77;0.55;;;;;;;9.57;100.00;99936.97;5007206;28;20054;-88
2023/04/11 02:32:04;;;;;;;1.15;0.50;;;;;;;9.48;100.00;99943.53;5012506;28;20065;-90
2023/04/11 02:34:48;;;;;;;1.85;0.75;;;;;;;9.38;100.00;99935.22;4976063;28;20217;-89
2023/04/11 02:37:16;;;;;;;2.22;0.60;;;;;;;9.37;100.00;99946.72;4991303;28;20351;-92
2023/04/11 02:39:56;;;;;;;2.25;0.60;;;;;;;9.30;100.00;99939.16;4987431;28;20047;-95
2023/04/11 02:42:28;;;;;;;2.03;0.68;;;;;;;9.33;100.00;99942.53;4994673;28;20110;-94
2023/04/11 02:45:10;;;;;;;3.40;0.65;;;;;;;9.28;100.00;99947.19;4957326;28;20428;-93
2023/04/11 02:47:39;;;;;;;1.58;0.70;;;;;;;9.32;100.00;99951.38;4974808;28;20448;-91
2023/04/11 02:50:08;;;;;;;2.17;0.47;;;;;;;9.20;100.00;99957.25;4979526;28;20031;-89
2023/04/11 02:52:38;;;;;;;3.55;1.05;;;;;;;9.21;100.00;99958.97;4994385;28;20090;-94
2023/04/11 02:55:09;;;;;;;1.77;0.90;;;;;;;8.80;100.00;99887.03;5206318;23;20030;-91
2023/04/11 02:57:36;;;;;;;2.15;0.80;;;;;;;8.89;100.00;99901.56;4971719;28;20038;-92
2023/04/11 03:00:06;;;;;;;1.90;0.70;;;;;;;9.13;100.00;99943.47;4976540;28;20066;-91
2023/04/11 03:02:34;;;;;;;0.95;0.80;;;;;;;8.86;100.00;99888.50;4991923;28;20035;-91
2023/04/11 03:05:04;;;;;;;1.27;0.70;;;;;;;9.18;100.00;99935.34;4969867;28;20028;-94
2023/04/11 03:07:31;;;;;;;2.40;0.70;;;;;;;9.10;100.00;99924.31;4971492;28;20093;-93
2023/04/11 03:10:08;;;;;;;1.52;0.80;;;;;;;8.92;100.00;99907.56;4986316;28;20047;-91
2023/04/11 03:12:45;;;;;;;2.33;0.95;;;;;;;8.73;100.00;99867.97;4973417;28;20042;-92
2023/04/11 03:15:14;;;;;;;1.17;0.60;;;;;;;9.01;100.00;99896.53;4977390;28;20055;-91
2023/04/11 03:17:51;;;;;;;2.22;0.73;;;;;;;9.24;100.00;99923.63;4972498;28;20043;-92
2023/04/11 03:20:20;;;;;;;2.05;0.80;;;;;;;9.04;100.00;99899.03;4963358;28;20114;-92
2023/04/11 03:22:50;;;;;;;2.20;0.65;;;;;;;9.20;100.00;99915.00;4983009;28;20076;-93
2023/04/11 03:25:17;;;;;;;3.35;0.80;;;;;;;9.30;100.00;99929.44;4984956;28;20047;-91
2023/04/11 03:27:44;;;;;;;1.13;0.75;;;;;;;9.30;100.00;99921.53;4972445;28;20043;-92
2023/04/11 03:30:17;;;;;;;1.85;0.70;;;;;;;9.29;100.00;99921.59;4974271;28;20111;-93
2023/04/11 03:32:48;;;;;;;2.78;1.30;;;;;;;9.24;100.00;99898.06;4976098;28;20148;-94
2023/04/11 03:35:21;;;;;;;1.67;0.70;;;;;;;9.29;100.00;99922.44;4978018;28;20078;-94
2023/04/11 03:37:57;;;;;;;1.95;0.57;;;;;;;9.17;100.00;99879.94;4974136;28;20058;-94
2023/04/11 03:40:35;;;;;;;1.27;0.60;;;;;;;9.14;100.00;99910.00;4971391;28;20078;-95
2023/04/11 03:43:17;;;;;;;1.02;0.50;;;;;;;9.13;100.00;99916.22;4975834;28;20110;-95
2023/04/11 03:45:50;;;;;;;2.92;0.75;;;;;;;8.97;100.00;99931.13;4964699;28;20058;-94
2023/04/11 03:48:28;;;;;;;3.70;0.90;;;;;;;8.88;100.00;99942.94;4962404;28;20113;-93
2023/04/11 03:50:56;;;;;;;2.90;1.02;;;;;;;8.43;100.00;99877.34;4989490;28;20041;-93
2023/04/11 03:53:29;;;;;;;3.72;0.63;;;;;;;8.28;100.00;99878.00;4965991;28;20043;-91
2023/04/11 03:56:08;;;;;;;2.25;0.70;;;;;;;8.74;100.00;99938.31;5065904;23;20072;-90
2023/04/11 03:58:41;;;;;;;1.42;0.77;;;;;;;8.61;100.00;99908.16;5019180;28;20049;-89
2023/04/11 04:01:11;;;;;;;1.73;0.60;;;;;;;8.28;100.00;99863.03;5023369;28;20052;-93
2023/04/11 04:03:44;;;;;;;2.72;0.80;;;;;;;8.37;100.00;99893.44;5052849;28;20042;-94
2023/04/11 04:06:15;;;;;;;3.78;0.85;;;;;;;8.43;100.00;99903.72;5032509;28;20030;-91
2023/04/11 04:08:43;;;;;;;1.92;1.00;;;;;;;8.78;100.00;99961.00;5056495;23;20044;-91
2023/04/11 04:11:12;;;;;;;3.38;0.70;;;;;;;8.14;100.00;99843.50;5025974;28;20062;-92
2023/04/11 04:13:39;;;;;;;1.63;0.50;;;;;;;8.44;100.00;99885.19;5015927;28;20034;-93
2023/04/11 04:16:07;;;;;;;4.10;0.65;;;;;;;8.05;100.00;99827.16;5017061;28;20046;-91
2023/04/11 04:18:35;;;;;;;1.33;0.75;;;;;;;8.50;100.00;99899.03;5033137;28;20049;-90
2023/04/11 04:21:07;;;;;;;;;;;;;;;8.64;100.00;99952.03;5033949;28;20035;-90
2023/04/11 04:23:35;;;;;;;3.20;0.93;;;;;;;8.16;100.00;99882.06;5033535;28;19909;-92
2023/04/11 04:26:02;;;;;;;3.03;0.47;;;;;;;8.55;100.00;99963.84;5009325;28;20069;-95
2023/04/11 04:28:29;;;;;;;2.53;0.80;;;;;;;8.50;100.00;99965.81;5004024;28;20039;-94
2023/04/11 04:31:03;;;;;;;4.65;0.90;;;;;;;8.48;100.00;99969.47;5016021;28;20064;-94
2023/04/11 04:33:31;;;;;;;1.73;0.60;;;;;;;8.52;100.00;99974.53;5025697;28;20046;-94
2023/04/11 04:36:08;;;;;;;1.75;0.70;;;;;;;8.52;100.00;99968.38;5004755;28;20433;-94
2023/04/11 04:38:40;;;;;;;1.58;0.60;;;;;;;8.46;100.00;99966.06;5002608;28;20065;-94
2023/04/11 04:41:15;;;;;;;3.17;0.70;;;;;;;8.39;100.00;99949.63;4996062;28;20043;-94
2023/04/11 04:43:45;;;;;;;2.55;0.82;;;;;;;8.33;100.00;99953.41;4997604;28;20059;-92
2023/04/11 04:46:15;;;;;;;3.80;0.67;;;;;;;8.28;100.00;99934.25;4991235;28;20027;-93
2023/04/11 04:48:51;;;;;;;1.60;0.60;;;;;;;8.51;100.00;99966.69;5006240;28;20481;-94
2023/04/11 04:51:18;;;;;;;2.53;0.60;;;;;;;8.44;100.00;99980.16;5109403;23;20045;-93
2023/04/11 04:53:48;;;;;;;2.05;0.80;;;;;;;8.43;100.00;99983.72;5000811;28;20042;-94
2023/04/11 04:56:15;;;;;;;1.15;0.77;;;;;;;7.78;100.00;99870.56;4993618;28;20118;-94
2023/04/11 04:58:45;;;;;;;2.30;0.90;;;;;;;8.35;100.00;99961.22;4997216;28;20045;-95
2023/04/11 05:01:15;;;;;;;3.80;0.88;;;;;;;8.13;100.00;99936.72;4998625;28;20057;-90
2023/04/11 05:03:57;;;;;;;3.88;0.80;;;;;;;8.27;100.00;99972.09;5017184;28;20026;-90
2023/04/11 05:06:30;;;;;;;1.90;1.00;;;;;;;8.23;100.00;99973.16;5008710;28;20042;-89
2023/04/11 05:09:08;;;;;;;3.80;1.20;;;;;;;8.26;100.00;99980.94;5014603;28;20102;-89
2023/04/11 05:11:37;;;;;;;2.28;0.93;;;;;;;8.25;100.00;99989.78;5024571;28;20109;-90
2023/04/11 05:14:10;;;;;;;2.35;0.90;;;;;;;7.91;100.00;99913.06;5019138;28;20044;-91
2023/04/11 05:16:52;;;;;;;7.35;1.10;;;;;;;7.87;100.00;99922.06;5003405;28;20060;-89
2023/04/11 05:19:31;;;;;;;2.25;0.95;;;;;;;8.27;100.00;99981.81;5015026;28;20060;-89
2023/04/11 05:22:03;;;;;;;4.93;1.08;;;;;;;8.28;100.00;99986.16;5020086;28;20142;-89
2023/04/11 05:24:30;;;;;;;5.97;1.08;;;;;;;8.33;100.00;99985.06;4993805;28;20030;-95
2023/04/11 05:27:04;;;;;;;3.85;1.13;;;;;;;8.04;100.00;99933.53;5137710;23;20039;-90
2023/04/11 05:29:46;;;;;;;3.45;0.93;;;;;;;8.38;100.00;99971.66;4984074;28;20062;-95
2023/04/11 05:32:14;;;;;;;5.78;1.20;;;;;;;7.92;100.00;99896.31;4962643;29;20036;-92
2023/04/11 05:34:54;;;;;;;4.35;1.00;;;;;;;8.09;100.00;99930.72;4964181;29;20063;-92
2023/04/11 05:37:47;;;;;;;4.38;1.15;;;;;;;8.02;100.00;99930.16;4971151;28;20329;-95
2023/04/11 05:40:18;;;;;;;6.30;1.70;;;;;;;7.96;100.00;99911.94;4957362;28;20039;-95
2023/04/11 05:43:14;;;;;;;2.53;1.15;;;;;;;7.90;100.00;99912.22;4932500;29;20047;-94
2023/04/11 05:46:06;;;;;;;3.88;1.30;;;;;;;8.16;100.00;99952.41;4970788;29;20067;-92
2023/04/11 05:49:04;;;;;;;3.30;1.33;;;;;;;8.12;100.00;99941.13;4951476;28;20071;-93
2023/04/11 05:54:29;;;;;;;4.82;1.42;;;;;;;7.80;100.00;99908.28;5067289;23;20045;-90
2023/04/11 05:57:16;;;;;;;6.45;1.77;;;;;;;8.51;100.00;100024.72;5256418;23;21450;-90
2023/04/11 06:02:43;;;;;;;5.05;1.30;;;;;;;8.49;100.00;100027.47;5006534;28;20050;-90
2023/04/11 06:05:35;;;;;;;4.45;1.35;;;;;;;8.18;100.00;99990.13;4992241;28;20038;-90
2023/04/11 06:08:16;;;;;;;5.88;1.75;;;;;;;8.33;100.00;100013.25;4995975;28;20107;-89
2023/04/11 06:10:44;;;;;;;5.75;1.33;;;;;;;7.90;100.00;99941.22;4994129;28;20118;-90
2023/04/11 06:13:26;;;;;;;4.38;1.20;;;;;;;8.55;100.00;100052.72;4988469;28;20411;-89
2023/04/11 06:15:57;;;;;;;3.88;1.80;;;;;;;8.35;100.00;100025.41;4982419;28;20030;-91
2023/04/11 06:18:45;;;;;;;6.00;1.10;;;;;;;8.53;100.00;100047.50;4983545;28;20039;-91
2023/04/11 06:21:21;;;;;;;4.30;1.35;;;;;;;8.59;100.00;100049.88;5300289;23;20046;-91
2023/04/11 06:24:09;;;;;;;6.97;1.10;;;;;;;8.40;100.00;100030.50;5413723;23;20120;-90
2023/04/11 06:26:39;;;;;;;5.65;1.27;;;;;;;8.70;100.00;100070.50;5039363;28;20042;-91
2023/04/11 06:31:57;;;;;;;7.15;1.58;;;;;;;8.87;100.00;100072.41;5107801;22;20055;-94
2023/04/11 06:34:34;;;;;;;8.82;1.40;;;;;;;8.89;100.00;100062.63;5032014;28;20042;-94
2023/04/11 06:37:44;;;;;;;9.40;1.63;;;;;;;8.50;100.00;99994.84;5026673;28;20045;-96
2023/04/11 06:40:22;;;;;;;9.75;1.40;;;;;;;8.40;100.00;99975.09;5037740;28;20036;-93
2023/04/11 06:43:05;;;;;;;8.57;1.60;;;;;;;8.95;100.00;100035.94;5039538;28;20049;-95
2023/04/11 06:45:40;;;;;;;8.45;1.42;;;;;;;9.32;100.00;100074.69;5062286;28;20050;-93
2023/04/11 06:48:30;;;;;;;11.18;1.63;;;;;;;9.45;100.00;100087.25;5042787;28;20032;-90
2023/04/11 06:51:18;;;;;;;8.73;1.60;;;;;;;9.21;100.00;100022.38;5127413;23;20512;-92
2023/04/11 07:13:12;;;;;;;7.38;1.50;;;;;;;9.61;100.00;100123.53;5039156;23;20066;-90
2023/04/11 07:16:04;;;;;;;8.70;1.48;;;;;;;9.72;100.00;100126.56;5426029;23;20031;-89
2023/04/11 07:19:08;;;;;;;10.23;1.52;;;;;;;9.62;100.00;100106.75;4999388;28;20039;-90
2023/04/11 07:21:38;;;;;;;8.98;1.70;;;;;;;9.14;100.00;100020.94;5013689;28;20085;-92
2023/04/11 07:24:17;;;;;;;7.13;1.35;;;;;;;9.76;100.00;100112.25;5003032;28;20027;-95
2023/04/11 07:27:01;;;;;;;7.65;1.45;;;;;;;9.62;100.00;100104.13;5013290;28;20034;-92
2023/04/11 07:29:34;;;;;;;4.82;1.15;;;;;;;9.97;100.00;100121.78;5010931;28;20030;-90
2023/04/11 07:32:15;;;;;;;10.45;1.45;;;;;;;10.07;100.00;100128.34;4995388;28;20126;-90
2023/04/11 07:34:49;;;;;;;10.30;2.00;;;;;;;9.93;100.00;100085.84;5004899;28;20034;-91
2023/04/11 07:37:21;;;;;;;13.25;1.67;;;;;;;10.30;100.00;100123.75;5014865;28;20042;-92
2023/04/11 07:39:48;;;;;;;8.75;1.73;;;;;;;10.03;100.00;100092.41;5012482;28;20323;-93
2023/04/11 07:42:16;;;;;;;10.45;1.60;;;;;;;9.91;100.00;100079.78;4997376;28;20046;-91
2023/04/11 07:44:55;;;;;;;15.02;1.67;;;;;;;10.15;100.00;100126.19;4989303;28;20061;-92
2023/04/11 07:49:59;;;;;;;6.17;1.30;;;;;;;10.40;100.00;100067.59;5120627;23;20034;-90
2023/04/11 07:52:38;;;;;;;9.25;1.45;;;;;;;10.80;89.50;100110.56;4998663;28;20794;-90
2023/04/11 07:55:09;;;;;;;8.27;1.45;;;;;;;10.86;88.11;100131.44;4970406;28;20035;-90
2023/04/11 07:57:54;;;;;;;6.53;1.40;;;;;;;10.44;90.02;100053.28;4984030;28;20047;-93
2023/04/11 08:00:53;;;;;;;7.00;1.50;;;;;;;11.06;89.87;100136.53;5087615;23;20065;31
2023/04/11 08:03:38;;;;;;;9.10;1.40;;;;;;;11.35;87.76;100132.31;4924461;28;20043;-91
2023/04/11 08:06:37;;;;;;;10.40;1.35;;;;;;;11.41;83.55;100141.75;5688362;22;20333;-92
2023/04/11 08:09:18;;;;;;;5.90;0.98;;;;;;;11.46;75.02;100151.16;4999066;28;20034;-92
2023/04/11 08:11:49;;;;;;;8.82;1.23;;;;;;;10.99;70.53;100082.16;5016173;28;20057;-94
2023/04/11 08:14:35;;;;;;;8.88;1.38;;;;;;;10.61;73.06;100070.09;4988005;28;20490;-93
2023/04/11 08:17:06;;;;;;;8.05;0.90;;;;;;;10.49;75.33;100061.00;4987284;28;20046;-93
2023/04/11 08:20:03;;;;;;;8.43;1.08;;;;;;;11.17;74.59;100165.13;5020627;28;20101;-92
2023/04/11 08:22:54;;;;;;;11.77;1.58;;;;;;;10.85;76.47;100111.19;4991812;28;20042;-88
2023/04/11 08:25:39;;;;;;;9.95;1.60;;;;;;;10.67;76.83;100107.72;5016428;28;20054;-92
2023/04/11 08:28:21;;;;;;;7.13;1.75;;;;;;;11.06;76.49;100172.78;4994544;28;20104;-95
2023/04/11 08:31:06;;;;;;;9.07;1.02;;;;;;;10.93;75.53;100161.09;5004221;28;20046;-91
2023/04/11 08:33:46;;;;;;;6.57;1.15;;;;;;;10.87;73.93;100109.28;4990692;28;20034;-91
2023/04/11 08:36:18;;;;;;;5.85;1.10;;;;;;;11.30;70.17;100175.94;5010109;28;20065;-94
2023/04/11 08:38:55;;;;;;;10.45;1.30;;;;;;;10.95;69.24;100130.09;5010911;28;20048;-91
2023/04/11 08:41:32;;;;;;;8.10;1.35;;;;;;;10.84;70.98;100136.81;4979992;28;20049;-93
2023/04/11 08:44:30;;;;;;;9.48;1.48;;;;;;;10.71;72.04;100085.41;4971410;28;20035;-93
2023/04/11 08:47:03;;;;;;;5.57;1.35;;;;;;;10.98;66.24;100088.41;4992249;28;20093;-95
2023/04/11 08:50:02;;;;;;;6.50;1.20;;;;;;;11.92;65.54;100159.25;4989468;28;20035;-93
2023/04/11 08:52:40;;;;;;;9.88;1.63;;;;;;;12.19;63.66;100172.75;5003543;28;20071;-95
2023/04/11 08:55:28;;;;;;;5.82;1.05;;;;;;;12.08;61.56;100165.41;4988623;28;20057;-90
2023/04/11 08:58:10;;;;;;;6.85;1.02;;;;;;;11.86;62.66;100133.06;4996867;28;20042;-92
2023/04/11 09:00:46;;;;;;;8.95;1.25;;;;;;;11.51;61.69;100080.16;4994044;28;20054;-90
2023/04/11 09:03:21;;;;;;;8.43;1.42;;;;;;;11.96;62.00;100168.78;4997628;28;20046;-90
2023/04/11 09:06:18;;;;;;;7.97;1.10;;;;;;;11.56;63.32;100125.84;5009585;28;20026;-91
2023/04/11 09:08:50;;;;;;;6.65;1.35;;;;;;;11.68;62.14;100180.00;4973932;28;20053;-92
2023/04/11 09:11:21;;;;;;;7.78;1.25;;;;;;;11.59;61.88;100183.16;4981794;28;20043;-92
2023/04/11 09:14:13;;;;;;;6.15;0.95;;;;;;;11.65;62.83;100189.94;4986240;28;20058;-90
2023/04/11 09:17:04;;;;;;;7.32;1.05;;;;;;;11.56;61.99;100167.41;4959723;29;21589;-93
2023/04/11 09:19:34;;;;;;;5.47;1.10;;;;;;;11.37;61.80;100121.63;4958118;29;20055;-94
2023/04/11 09:22:05;;;;;;;6.50;1.17;;;;;;;11.76;61.80;100159.25;4959702;28;20035;-93
2023/04/11 09:24:32;;;;;;;3.63;0.75;;;;;;;11.63;62.01;100093.69;4969996;28;20039;-92
2023/04/11 09:27:18;;;;;;;5.82;1.13;;;;;;;12.54;61.51;100199.94;4975854;28;20494;-93
2023/04/11 09:29:48;;;;;;;8.30;1.25;;;;;;;12.36;60.34;100171.78;4972307;28;20043;-94
2023/04/11 09:32:34;;;;;;;5.72;1.30;;;;;;;12.37;60.05;100213.34;4962505;28;20134;-94
2023/04/11 09:35:17;;;;;;;6.25;0.88;;;;;;;12.44;61.14;100209.38;4972214;28;20047;-92
2023/04/11 09:37:56;;;;;;;5.30;1.15;;;;;;;12.17;61.36;100154.25;4977527;28;20062;-92
2023/04/11 09:40:32;;;;;;;8.23;1.00;;;;;;;12.47;61.02;100204.75;4984761;28;20040;-93
2023/04/11 09:43:18;;;;;;;6.13;0.90;;;;;;;12.46;59.63;100212.78;4967785;28;20062;-93
2023/04/11 09:45:51;;;;;;;5.43;1.50;;;;;;;12.01;59.25;100118.91;4965841;28;20044;-91
2023/04/11 09:51:48;;;;;;;4.40;1.23;;;;;;;13.37;57.05;100209.19;1603560;23;20211;-88
2023/04/11 09:54:20;;;;;;;5.15;0.82;;;;;;;13.40;55.70;100207.16;5004197;28;20200;-94
2023/04/11 09:56:54;;;;;;;5.00;1.38;;;;;;;13.14;56.52;100154.72;5037856;28;20041;-93
2023/04/11 09:59:37;;;;;;;5.20;1.30;;;;;;;13.40;55.71;100177.06;5038789;28;20053;-92
2023/04/11 10:02:07;;;;;;;6.85;1.15;;;;;;;13.65;54.03;100196.72;5029118;28;20068;-92
2023/04/11 10:04:50;;;;;;;4.50;0.90;;;;;;;13.38;54.21;100202.91;5006192;28;20049;-90
2023/04/11 10:07:29;;;;;;;10.43;1.23;;;;;;;12.98;54.54;100176.06;5045136;28;20156;-91
2023/04/11 10:10:09;;;;;;;7.72;1.25;;;;;;;12.65;55.23;100125.78;5045885;28;20031;-92
2023/04/11 10:12:42;;;;;;;7.38;0.85;;;;;;;12.69;53.94;100108.72;4977281;28;20501;-92
2023/04/11 10:15:21;;;;;;;3.70;1.40;;;;;;;13.48;54.19;100188.94;5030454;28;20045;-92
2023/04/11 10:18:12;;;;;;;7.22;1.35;;;;;;;13.16;54.07;100139.56;4995905;28;20050;-93
2023/04/11 10:20:48;;;;;;;6.18;1.00;;;;;;;12.72;54.31;100115.66;5024677;28;20042;-94
2023/04/11 10:23:17;;;;;;;4.78;0.93;;;;;;;12.52;55.36;100104.41;5028573;28;20046;-94
2023/04/11 10:26:00;;;;;;;5.82;1.15;;;;;;;12.80;52.29;100179.81;5006182;28;20060;-92
2023/04/11 10:28:48;;;;;;;4.53;1.30;;;;;;;12.74;50.87;100196.13;5027554;28;20050;-93
2023/04/11 10:31:22;;;;;;;4.63;0.68;;;;;;;12.34;49.34;100117.91;5021093;28;20486;-92
2023/04/11 10:34:18;;;;;;;5.78;1.02;;;;;;;12.63;54.45;100208.22;5025541;28;20155;-92
2023/04/11 10:37:07;;;;;;;4.63;1.13;;;;;;;12.25;57.48;100159.16;5012273;28;20050;-94
2023/04/11 10:39:47;;;;;;;3.35;0.60;;;;;;;12.61;59.13;100199.47;5035923;28;20045;-94
2023/04/11 10:42:41;;;;;;;4.82;0.70;;;;;;;12.34;59.41;100110.81;5007782;28;20048;-94
2023/04/11 10:45:25;;;;;;;5.20;0.80;;;;;;;13.05;59.69;100196.00;5024888;28;20042;-93
2023/04/11 10:48:06;;;;;;;4.57;0.90;;;;;;;13.22;58.40;100153.31;5033532;28;20088;-93
2023/04/11 10:50:47;;;;;;;3.13;1.15;;;;;;;13.53;56.96;100157.59;5038628;28;20065;-91
2023/04/11 10:53:35;;;;;;;4.20;1.38;;;;;;;13.77;57.19;100167.63;5036315;28;20637;-93
2023/04/11 10:56:03;;;;;;;3.25;0.75;;;;;;;13.86;57.78;100183.00;4996585;28;20267;-94
2023/04/11 10:58:37;;;;;;;2.83;0.90;;;;;;;13.19;57.20;100104.81;5016167;28;20057;-94
2023/04/11 11:01:18;;;;;;;3.85;0.90;;;;;;;13.75;56.06;100183.69;5005560;28;20061;-92
2023/04/11 11:04:10;;;;;;;3.50;0.65;;;;;;;13.27;55.86;100094.53;5026922;28;20370;-92
2023/04/11 11:06:55;;;;;;;3.92;1.10;;;;;;;13.89;54.08;100182.81;5007436;28;20505;-94
2023/04/11 11:09:27;;;;;;;5.13;0.93;;;;;;;13.50;53.37;100091.28;5038510;28;20056;-93
2023/04/11 11:12:15;;;;;;;6.70;1.85;;;;;;;13.95;53.66;100091.91;5021815;28;20046;-94
2023/04/11 11:14:47;;;;;;;3.60;0.95;;;;;;;14.28;50.39;100164.25;5007345;28;20052;-92
2023/04/11 11:17:29;;;;;;;5.22;0.80;;;;;;;13.76;47.68;100128.66;5021471;28;20034;-93
2023/04/11 11:20:08;;;;;;;3.45;0.60;;;;;;;13.81;45.00;100159.38;5014512;28;20077;-92
2023/04/11 11:23:10;;;;;;;4.22;0.82;;;;;;;13.91;43.14;100143.66;5029612;28;20046;-94
2023/04/11 11:25:37;;;;;;;4.78;0.93;;;;;;;13.66;41.93;100123.09;5001904;28;20046;-92
2023/04/11 11:28:14;;;;;;;3.65;0.80;;;;;;;13.76;42.37;100171.25;5014112;28;20077;-94
2023/04/11 11:30:56;;;;;;;4.45;0.60;;;;;;;13.17;42.25;100093.41;5039329;28;20057;-90
2023/04/11 11:33:28;;;;;;;5.13;1.00;;;;;;;13.35;41.26;100129.50;5026438;28;20109;-92
2023/04/11 11:38:41;;;;;;;2.92;0.60;;;;;;;14.23;38.91;100153.06;4996006;28;20057;-90
2023/04/11 11:41:15;;;;;;;5.35;0.90;;;;;;;14.42;37.04;100160.72;4976120;28;20047;-90
2023/04/11 11:43:45;;;;;;;5.70;0.85;;;;;;;14.56;37.19;100165.13;4982961;28;20031;-91
2023/04/11 11:46:24;;;;;;;4.07;0.63;;;;;;;14.31;36.74;100124.13;4991429;28;20046;-90
2023/04/11 11:49:07;;;;;;;2.35;0.57;;;;;;;13.67;34.07;100076.91;4988124;28;20138;-91
2023/04/11 11:52:00;;;;;;;1.65;0.50;;;;;;;13.39;34.24;100098.22;4997545;28;20058;-92
2023/04/11 11:54:47;;;;;;;3.90;1.15;;;;;;;13.67;36.86;100152.25;4988541;28;20069;-92
2023/04/11 11:57:24;;;;;;;3.28;0.70;;;;;;;13.56;37.55;100141.41;4997952;28;20042;-94
2023/04/11 12:00:04;;;;;;;4.07;0.93;;;;;;;13.56;37.46;100170.69;4967782;28;20050;-95
2023/04/11 12:02:43;;;;;;;2.92;0.60;;;;;;;13.50;39.85;100165.78;4976798;28;20043;-92
2023/04/11 12:05:58;;;;;;;5.68;1.10;;;;;;;13.51;45.65;100124.91;4978558;28;20030;-91
2023/04/11 12:08:44;;;;;;;6.50;1.15;;;;;;;14.07;47.15;100192.28;4992486;28;20049;-94
2023/04/11 12:11:44;;;;;;;4.25;0.90;;;;;;;13.80;47.58;100200.22;4993807;28;20054;-95
2023/04/11 12:14:39;;;;;;;4.97;1.30;;;;;;;13.63;46.22;100188.00;5004442;28;20041;-91
2023/04/11 12:17:13;;;;;;;4.18;0.80;;;;;;;13.89;45.44;100183.66;4986075;28;20046;-91
2023/04/11 12:19:43;;;;;;;4.03;0.90;;;;;;;14.13;44.29;100170.59;5005141;28;20081;-93
2023/04/11 12:22:16;;;;;;;4.53;0.77;;;;;;;13.97;41.56;100100.66;4983946;28;20053;-91
2023/04/11 12:24:51;;;;;;;4.65;0.77;;;;;;;14.19;40.78;100132.03;4983687;28;20085;-93
2023/04/11 12:27:25;;;;;;;3.40;1.05;;;;;;;14.34;40.78;100179.81;4986890;28;20038;-92
2023/04/11 12:29:55;;;;;;;3.38;0.82;;;;;;;13.84;41.19;100158.31;4973390;28;20109;-93
2023/04/11 12:32:23;;;;;;;2.22;0.85;;;;;;;13.42;37.21;100101.53;5002751;28;20077;-93
2023/04/11 12:35:07;;;;;;;2.15;0.55;;;;;;;14.20;37.23;100182.53;4995013;28;20046;-91
2023/04/11 12:37:52;;;;;;;3.05;0.70;;;;;;;13.62;37.68;100121.56;5001278;28;20136;-90
2023/04/11 12:40:23;;;;;;;4.40;0.80;;;;;;;13.76;37.26;100176.56;5256151;23;20120;-93
2023/04/11 12:42:57;;;;;;;4.13;0.88;;;;;;;13.67;38.00;100183.34;5261048;23;20085;-92
2023/04/11 12:45:36;;;;;;;6.30;0.80;;;;;;;13.84;38.15;100169.81;4974819;28;20083;-92